sensor_id;sensor_type;location;lat;lon;timestamp;temperature;humidity
28177;DHT22;15461;41.652;9.378;2023-05-15T00:00:55;14.60;99.90
28177;DHT22;15461;41.652;9.378;2023-05-15T00:03:23;14.50;99.90
28177;DHT22;15461;41.652;9.378;2023-05-15T00:05:50;14.50;99.90
28177;DHT22;15461;41.652;9.378;2023-05-15T00:08:17;14.50;99.90
28177;DHT22;15461;41.652;9.378;2023-05-15T00:10:43;14.50;99.90
28177;DHT22;15461;41.652;9.378;2023-05-15T00:13:09;14.50;99.90
28177;DHT22;15461;41.652;9.378;2023-05-15T00:15:35;14.50;99.90
28177;DHT22;15461;41.652;9.378;2023-05-15T00:18:00;14.50;99.90
28177;DHT22;15461;41.652;9.378;2023-05-15T00:20:26;14.50;99.90
28177;DHT22;15461;41.652;9.378;2023-05-15T00:22:52;14.50;99.90
28177;DHT22;15461;41.652;9.378;2023-05-15T00:25:18;14.50;99.90
28177;DHT22;15461;41.652;9.378;2023-05-15T00:27:44;14.40;99.90
28177;DHT22;15461;41.652;9.378;2023-05-15T00:30:12;14.30;99.90
28177;DHT22;15461;41.652;9.378;2023-05-15T00:32:38;14.30;99.90
28177;DHT22;15461;41.652;9.378;2023-05-15T00:35:05;14.30;99.90
28177;DHT22;15461;41.652;9.378;2023-05-15T00:37:31;14.30;99.90
28177;DHT22;15461;41.652;9.378;2023-05-15T00:39:57;14.30;99.90
28177;DHT22;15461;41.652;9.378;2023-05-15T00:42:24;14.30;99.90
28177;DHT22;15461;41.652;9.378;2023-05-15T00:44:51;14.20;99.90
28177;DHT22;15461;41.652;9.378;2023-05-15T00:47:19;14.20;99.90
28177;DHT22;15461;41.652;9.378;2023-05-15T00:49:46;14.20;99.90
28177;DHT22;15461;41.652;9.378;2023-05-15T00:52:14;14.10;99.90
28177;DHT22;15461;41.652;9.378;2023-05-15T00:54:41;14.10;99.90
28177;DHT22;15461;41.652;9.378;2023-05-15T00:57:07;14.00;99.90
28177;DHT22;15461;41.652;9.378;2023-05-15T00:59:35;13.90;99.90
28177;DHT22;15461;41.652;9.378;2023-05-15T01:02:01;13.90;99.90
28177;DHT22;15461;41.652;9.378;2023-05-15T01:04:27;13.70;99.90
28177;DHT22;15461;41.652;9.378;2023-05-15T01:06:53;13.70;99.90
28177;DHT22;15461;41.652;9.378;2023-05-15T01:09:21;13.50;99.90
28177;DHT22;15461;41.652;9.378;2023-05-15T01:11:49;13.40;99.90
28177;DHT22;15461;41.652;9.378;2023-05-15T01:14:18;13.30;99.90
28177;DHT22;15461;41.652;9.378;2023-05-15T01:16:43;13.20;99.90
28177;DHT22;15461;41.652;9.378;2023-05-15T01:19:10;13.10;99.90
28177;DHT22;15461;41.652;9.378;2023-05-15T01:32:33;12.70;99.90
28177;DHT22;15461;41.652;9.378;2023-05-15T01:35:32;12.70;99.90
28177;DHT22;15461;41.652;9.378;2023-05-15T01:40:56;12.60;99.90
28177;DHT22;15461;41.652;9.378;2023-05-15T01:43:27;12.50;99.90
28177;DHT22;15461;41.652;9.378;2023-05-15T01:45:55;12.40;99.90
28177;DHT22;15461;41.652;9.378;2023-05-15T01:48:25;12.40;99.90
28177;DHT22;15461;41.652;9.378;2023-05-15T01:51:00;12.30;99.90
28177;DHT22;15461;41.652;9.378;2023-05-15T01:53:30;12.20;99.90
28177;DHT22;15461;41.652;9.378;2023-05-15T01:55:57;12.20;99.90
28177;DHT22;15461;41.652;9.378;2023-05-15T01:58:26;12.10;99.90
28177;DHT22;15461;41.652;9.378;2023-05-15T02:00:53;12.10;99.90
28177;DHT22;15461;41.652;9.378;2023-05-15T02:03:19;12.10;99.90
28177;DHT22;15461;41.652;9.378;2023-05-15T02:05:46;12.00;99.90
28177;DHT22;15461;41.652;9.378;2023-05-15T02:08:14;12.00;99.90
28177;DHT22;15461;41.652;9.378;2023-05-15T02:10:42;12.00;99.90
28177;DHT22;15461;41.652;9.378;2023-05-15T02:13:09;11.90;99.90
28177;DHT22;15461;41.652;9.378;2023-05-15T02:15:36;11.80;99.90
28177;DHT22;15461;41.652;9.378;2023-05-15T02:18:03;11.80;99.90
28177;DHT22;15461;41.652;9.378;2023-05-15T02:20:29;11.80;99.90
28177;DHT22;15461;41.652;9.378;2023-05-15T02:22:55;11.70;99.90
28177;DHT22;15461;41.652;9.378;2023-05-15T02:25:31;11.70;99.90
28177;DHT22;15461;41.652;9.378;2023-05-15T02:28:00;11.70;99.90
28177;DHT22;15461;41.652;9.378;2023-05-15T02:33:30;11.60;99.90
28177;DHT22;15461;41.652;9.378;2023-05-15T02:36:04;11.60;99.90
28177;DHT22;15461;41.652;9.378;2023-05-15T02:38:51;11.60;99.90
28177;DHT22;15461;41.652;9.378;2023-05-15T02:41:19;11.50;99.90
28177;DHT22;15461;41.652;9.378;2023-05-15T02:43:49;11.50;99.90
28177;DHT22;15461;41.652;9.378;2023-05-15T02:46:17;11.50;99.90
28177;DHT22;15461;41.652;9.378;2023-05-15T02:48:45;11.50;99.90
28177;DHT22;15461;41.652;9.378;2023-05-15T02:51:12;11.50;99.90
28177;DHT22;15461;41.652;9.378;2023-05-15T02:53:40;11.50;99.90
28177;DHT22;15461;41.652;9.378;2023-05-15T02:56:06;11.50;99.90
28177;DHT22;15461;41.652;9.378;2023-05-15T02:58:32;11.50;99.90
28177;DHT22;15461;41.652;9.378;2023-05-15T03:00:58;11.50;99.90
28177;DHT22;15461;41.652;9.378;2023-05-15T03:03:25;11.40;99.90
28177;DHT22;15461;41.652;9.378;2023-05-15T03:05:51;11.40;99.90
28177;DHT22;15461;41.652;9.378;2023-05-15T03:08:17;11.40;99.90
28177;DHT22;15461;41.652;9.378;2023-05-15T03:10:43;11.40;99.90
28177;DHT22;15461;41.652;9.378;2023-05-15T03:13:09;11.40;99.90
28177;DHT22;15461;41.652;9.378;2023-05-15T03:15:35;11.30;99.90
28177;DHT22;15461;41.652;9.378;2023-05-15T03:18:01;11.40;99.90
28177;DHT22;15461;41.652;9.378;2023-05-15T03:20:27;11.40;99.90
28177;DHT22;15461;41.652;9.378;2023-05-15T03:22:54;11.40;99.90
28177;DHT22;15461;41.652;9.378;2023-05-15T03:25:20;11.30;99.90
28177;DHT22;15461;41.652;9.378;2023-05-15T03:27:46;11.30;99.90
28177;DHT22;15461;41.652;9.378;2023-05-15T03:30:12;11.20;99.90
28177;DHT22;15461;41.652;9.378;2023-05-15T03:32:38;11.20;99.90
28177;DHT22;15461;41.652;9.378;2023-05-15T03:35:04;11.20;99.90
28177;DHT22;15461;41.652;9.378;2023-05-15T03:37:31;11.20;99.90
28177;DHT22;15461;41.652;9.378;2023-05-15T03:39:57;11.10;99.90
28177;DHT22;15461;41.652;9.378;2023-05-15T03:42:23;11.10;99.90
28177;DHT22;15461;41.652;9.378;2023-05-15T03:44:50;11.20;99.90
28177;DHT22;15461;41.652;9.378;2023-05-15T03:47:16;11.10;99.90
28177;DHT22;15461;41.652;9.378;2023-05-15T03:49:42;11.10;99.90
28177;DHT22;15461;41.652;9.378;2023-05-15T03:52:08;11.10;99.90
28177;DHT22;15461;41.652;9.378;2023-05-15T03:54:35;11.10;99.90
28177;DHT22;15461;41.652;9.378;2023-05-15T03:57:01;11.10;99.90
28177;DHT22;15461;41.652;9.378;2023-05-15T03:59:28;11.10;99.90
28177;DHT22;15461;41.652;9.378;2023-05-15T04:01:54;11.10;99.90
28177;DHT22;15461;41.652;9.378;2023-05-15T04:04:20;11.10;99.90
28177;DHT22;15461;41.652;9.378;2023-05-15T04:06:46;11.00;99.90
28177;DHT22;15461;41.652;9.378;2023-05-15T04:09:12;11.00;99.90
28177;DHT22;15461;41.652;9.378;2023-05-15T04:11:38;11.00;99.90
28177;DHT22;15461;41.652;9.378;2023-05-15T04:14:03;11.00;99.90
28177;DHT22;15461;41.652;9.378;2023-05-15T04:16:29;11.00;99.90
28177;DHT22;15461;41.652;9.378;2023-05-15T04:18:55;11.00;99.90
28177;DHT22;15461;41.652;9.378;2023-05-15T04:21:21;11.00;99.90
28177;DHT22;15461;41.652;9.378;2023-05-15T04:23:47;11.00;99.90
28177;DHT22;15461;41.652;9.378;2023-05-15T04:26:13;11.00;99.90
28177;DHT22;15461;41.652;9.378;2023-05-15T04:28:39;11.00;99.90
28177;DHT22;15461;41.652;9.378;2023-05-15T04:31:06;11.00;99.90
28177;DHT22;15461;41.652;9.378;2023-05-15T04:33:31;11.00;99.90
28177;DHT22;15461;41.652;9.378;2023-05-15T04:35:57;11.10;99.90
28177;DHT22;15461;41.652;9.378;2023-05-15T04:38:23;11.10;99.90
28177;DHT22;15461;41.652;9.378;2023-05-15T04:40:49;11.10;99.90
28177;DHT22;15461;41.652;9.378;2023-05-15T04:43:15;11.20;99.90
28177;DHT22;15461;41.652;9.378;2023-05-15T04:45:41;11.20;99.90
28177;DHT22;15461;41.652;9.378;2023-05-15T04:48:07;11.20;99.90
28177;DHT22;15461;41.652;9.378;2023-05-15T04:50:33;11.30;99.90
28177;DHT22;15461;41.652;9.378;2023-05-15T04:52:59;11.30;99.90
28177;DHT22;15461;41.652;9.378;2023-05-15T04:55:25;11.40;99.90
28177;DHT22;15461;41.652;9.378;2023-05-15T04:57:51;11.40;99.90
28177;DHT22;15461;41.652;9.378;2023-05-15T05:00:17;11.50;99.90
28177;DHT22;15461;41.652;9.378;2023-05-15T05:02:43;11.50;99.90
28177;DHT22;15461;41.652;9.378;2023-05-15T05:05:09;11.60;99.90
28177;DHT22;15461;41.652;9.378;2023-05-15T05:07:35;11.70;99.90
28177;DHT22;15461;41.652;9.378;2023-05-15T05:10:02;11.80;99.90
28177;DHT22;15461;41.652;9.378;2023-05-15T05:12:29;11.90;99.90
28177;DHT22;15461;41.652;9.378;2023-05-15T05:14:54;12.00;99.90
28177;DHT22;15461;41.652;9.378;2023-05-15T05:17:21;12.00;99.90
28177;DHT22;15461;41.652;9.378;2023-05-15T05:19:47;12.10;99.90
28177;DHT22;15461;41.652;9.378;2023-05-15T05:22:13;12.20;99.90
28177;DHT22;15461;41.652;9.378;2023-05-15T05:24:39;12.20;99.90
28177;DHT22;15461;41.652;9.378;2023-05-15T05:27:05;12.30;99.90
28177;DHT22;15461;41.652;9.378;2023-05-15T05:29:31;12.40;99.90
28177;DHT22;15461;41.652;9.378;2023-05-15T05:31:57;12.50;99.90
28177;DHT22;15461;41.652;9.378;2023-05-15T05:34:23;12.60;99.90
28177;DHT22;15461;41.652;9.378;2023-05-15T05:36:49;12.70;99.90
28177;DHT22;15461;41.652;9.378;2023-05-15T05:39:15;12.80;99.90
28177;DHT22;15461;41.652;9.378;2023-05-15T05:41:42;12.90;99.90
28177;DHT22;15461;41.652;9.378;2023-05-15T05:44:08;13.00;99.90
28177;DHT22;15461;41.652;9.378;2023-05-15T05:46:34;13.20;99.90
28177;DHT22;15461;41.652;9.378;2023-05-15T05:49:00;13.40;99.90
28177;DHT22;15461;41.652;9.378;2023-05-15T05:51:26;13.60;99.90
28177;DHT22;15461;41.652;9.378;2023-05-15T05:53:51;13.70;99.90
28177;DHT22;15461;41.652;9.378;2023-05-15T05:56:18;13.90;99.90
28177;DHT22;15461;41.652;9.378;2023-05-15T05:58:43;14.10;99.90
28177;DHT22;15461;41.652;9.378;2023-05-15T06:01:09;14.30;99.90
28177;DHT22;15461;41.652;9.378;2023-05-15T06:03:36;14.50;99.90
28177;DHT22;15461;41.652;9.378;2023-05-15T06:06:03;14.70;99.90
28177;DHT22;15461;41.652;9.378;2023-05-15T06:08:29;14.80;99.90
28177;DHT22;15461;41.652;9.378;2023-05-15T06:14:42;15.20;99.90
28177;DHT22;15461;41.652;9.378;2023-05-15T06:17:08;15.40;99.90
28177;DHT22;15461;41.652;9.378;2023-05-15T06:19:34;15.70;99.90
28177;DHT22;15461;41.652;9.378;2023-05-15T06:22:00;15.90;99.90
28177;DHT22;15461;41.652;9.378;2023-05-15T06:24:26;16.00;99.90
28177;DHT22;15461;41.652;9.378;2023-05-15T06:26:52;16.30;99.90
28177;DHT22;15461;41.652;9.378;2023-05-15T06:29:18;16.50;99.90
28177;DHT22;15461;41.652;9.378;2023-05-15T06:31:44;16.60;99.90
28177;DHT22;15461;41.652;9.378;2023-05-15T06:34:10;16.80;99.90
28177;DHT22;15461;41.652;9.378;2023-05-15T06:36:36;17.00;99.90
28177;DHT22;15461;41.652;9.378;2023-05-15T06:39:03;17.00;99.90
28177;DHT22;15461;41.652;9.378;2023-05-15T06:41:31;17.10;99.90
28177;DHT22;15461;41.652;9.378;2023-05-15T06:43:57;17.20;99.90
28177;DHT22;15461;41.652;9.378;2023-05-15T06:46:24;17.30;99.90
28177;DHT22;15461;41.652;9.378;2023-05-15T06:48:50;17.30;99.90
28177;DHT22;15461;41.652;9.378;2023-05-15T06:51:15;17.20;99.90
28177;DHT22;15461;41.652;9.378;2023-05-15T06:53:41;17.20;99.90
28177;DHT22;15461;41.652;9.378;2023-05-15T06:56:07;17.30;99.90
28177;DHT22;15461;41.652;9.378;2023-05-15T06:58:33;17.40;99.90
28177;DHT22;15461;41.652;9.378;2023-05-15T07:01:00;17.40;99.90
28177;DHT22;15461;41.652;9.378;2023-05-15T07:03:29;17.40;99.90
28177;DHT22;15461;41.652;9.378;2023-05-15T07:05:55;17.40;99.90
28177;DHT22;15461;41.652;9.378;2023-05-15T07:08:20;17.40;99.90
28177;DHT22;15461;41.652;9.378;2023-05-15T07:10:47;17.40;99.90
28177;DHT22;15461;41.652;9.378;2023-05-15T07:13:18;17.50;99.90
28177;DHT22;15461;41.652;9.378;2023-05-15T07:15:44;17.50;99.90
28177;DHT22;15461;41.652;9.378;2023-05-15T07:18:10;17.60;99.90
28177;DHT22;15461;41.652;9.378;2023-05-15T07:20:36;17.80;99.90
28177;DHT22;15461;41.652;9.378;2023-05-15T07:23:03;17.90;99.90
28177;DHT22;15461;41.652;9.378;2023-05-15T07:25:29;18.10;99.90
28177;DHT22;15461;41.652;9.378;2023-05-15T07:27:55;18.30;99.90
28177;DHT22;15461;41.652;9.378;2023-05-15T07:30:22;18.50;99.90
28177;DHT22;15461;41.652;9.378;2023-05-15T07:32:48;18.60;99.90
28177;DHT22;15461;41.652;9.378;2023-05-15T07:35:14;18.70;99.90
28177;DHT22;15461;41.652;9.378;2023-05-15T07:37:40;18.80;99.90
28177;DHT22;15461;41.652;9.378;2023-05-15T07:43:55;19.10;99.90
28177;DHT22;15461;41.652;9.378;2023-05-15T07:46:21;19.20;99.90
28177;DHT22;15461;41.652;9.378;2023-05-15T07:48:46;19.30;99.90
28177;DHT22;15461;41.652;9.378;2023-05-15T07:51:12;19.40;99.90
28177;DHT22;15461;41.652;9.378;2023-05-15T07:53:38;19.50;99.90
28177;DHT22;15461;41.652;9.378;2023-05-15T07:56:04;19.60;99.90
28177;DHT22;15461;41.652;9.378;2023-05-15T07:58:30;19.80;99.90
28177;DHT22;15461;41.652;9.378;2023-05-15T08:00:56;19.90;99.90
28177;DHT22;15461;41.652;9.378;2023-05-15T08:03:22;20.00;99.90
28177;DHT22;15461;41.652;9.378;2023-05-15T08:05:48;19.90;99.90
28177;DHT22;15461;41.652;9.378;2023-05-15T08:08:14;19.90;99.90
28177;DHT22;15461;41.652;9.378;2023-05-15T08:10:40;19.80;99.90
28177;DHT22;15461;41.652;9.378;2023-05-15T08:13:06;19.80;99.90
28177;DHT22;15461;41.652;9.378;2023-05-15T08:15:32;19.80;99.90
28177;DHT22;15461;41.652;9.378;2023-05-15T08:17:58;19.90;99.90
28177;DHT22;15461;41.652;9.378;2023-05-15T08:20:24;20.00;99.90
28177;DHT22;15461;41.652;9.378;2023-05-15T08:22:50;20.00;99.90
28177;DHT22;15461;41.652;9.378;2023-05-15T08:25:16;20.00;99.90
28177;DHT22;15461;41.652;9.378;2023-05-15T08:27:42;20.00;99.90
28177;DHT22;15461;41.652;9.378;2023-05-15T08:30:08;20.00;99.90
28177;DHT22;15461;41.652;9.378;2023-05-15T08:32:34;20.00;99.90
28177;DHT22;15461;41.652;9.378;2023-05-15T08:35:00;20.10;99.90
28177;DHT22;15461;41.652;9.378;2023-05-15T08:37:26;20.20;99.90
28177;DHT22;15461;41.652;9.378;2023-05-15T08:39:52;20.40;99.90
28177;DHT22;15461;41.652;9.378;2023-05-15T08:42:19;20.50;99.90
28177;DHT22;15461;41.652;9.378;2023-05-15T08:44:46;20.60;99.90
28177;DHT22;15461;41.652;9.378;2023-05-15T08:47:13;20.50;99.90
28177;DHT22;15461;41.652;9.378;2023-05-15T08:49:59;20.50;99.90
28177;DHT22;15461;41.652;9.378;2023-05-15T08:52:29;20.40;99.90
28177;DHT22;15461;41.652;9.378;2023-05-15T08:54:55;20.40;99.90
28177;DHT22;15461;41.652;9.378;2023-05-15T08:57:21;20.40;99.90
28177;DHT22;15461;41.652;9.378;2023-05-15T08:59:48;20.60;99.90
28177;DHT22;15461;41.652;9.378;2023-05-15T09:02:14;20.70;99.90
28177;DHT22;15461;41.652;9.378;2023-05-15T09:04:40;20.80;99.90
28177;DHT22;15461;41.652;9.378;2023-05-15T09:07:06;20.80;99.90
28177;DHT22;15461;41.652;9.378;2023-05-15T09:09:34;20.70;99.90
28177;DHT22;15461;41.652;9.378;2023-05-15T09:12:01;20.70;99.90
28177;DHT22;15461;41.652;9.378;2023-05-15T09:14:28;20.80;99.90
28177;DHT22;15461;41.652;9.378;2023-05-15T09:16:54;20.90;99.90
28177;DHT22;15461;41.652;9.378;2023-05-15T09:19:21;21.10;99.90
28177;DHT22;15461;41.652;9.378;2023-05-15T09:21:47;21.20;99.90
28177;DHT22;15461;41.652;9.378;2023-05-15T09:24:21;21.30;99.90
28177;DHT22;15461;41.652;9.378;2023-05-15T09:27:03;21.30;99.90
28177;DHT22;15461;41.652;9.378;2023-05-15T09:29:32;21.40;99.90
28177;DHT22;15461;41.652;9.378;2023-05-15T09:32:13;21.50;99.90
28177;DHT22;15461;41.652;9.378;2023-05-15T09:34:42;21.70;99.90
28177;DHT22;15461;41.652;9.378;2023-05-15T09:37:09;21.70;99.90
28177;DHT22;15461;41.652;9.378;2023-05-15T09:39:41;21.70;99.90
28177;DHT22;15461;41.652;9.378;2023-05-15T09:42:13;21.60;99.90
28177;DHT22;15461;41.652;9.378;2023-05-15T09:44:41;21.50;99.90
28177;DHT22;15461;41.652;9.378;2023-05-15T09:47:08;21.60;99.90
28177;DHT22;15461;41.652;9.378;2023-05-15T09:49:35;21.70;99.90
28177;DHT22;15461;41.652;9.378;2023-05-15T09:52:01;21.80;99.90
28177;DHT22;15461;41.652;9.378;2023-05-15T09:54:27;21.80;99.90
28177;DHT22;15461;41.652;9.378;2023-05-15T09:56:55;21.80;99.90
28177;DHT22;15461;41.652;9.378;2023-05-15T09:59:21;21.80;99.90
28177;DHT22;15461;41.652;9.378;2023-05-15T10:01:49;22.00;99.90
28177;DHT22;15461;41.652;9.378;2023-05-15T10:04:15;22.00;99.90
28177;DHT22;15461;41.652;9.378;2023-05-15T10:06:44;22.10;99.90
28177;DHT22;15461;41.652;9.378;2023-05-15T10:09:11;22.00;99.90
28177;DHT22;15461;41.652;9.378;2023-05-15T10:11:39;22.00;99.90
28177;DHT22;15461;41.652;9.378;2023-05-15T10:14:07;22.10;99.90
28177;DHT22;15461;41.652;9.378;2023-05-15T10:16:35;22.00;99.90
28177;DHT22;15461;41.652;9.378;2023-05-15T10:19:06;22.00;99.90
28177;DHT22;15461;41.652;9.378;2023-05-15T10:21:34;21.90;99.90
28177;DHT22;15461;41.652;9.378;2023-05-15T10:24:01;21.90;99.90
28177;DHT22;15461;41.652;9.378;2023-05-15T10:26:37;21.80;99.90
28177;DHT22;15461;41.652;9.378;2023-05-15T10:29:08;21.80;99.90
28177;DHT22;15461;41.652;9.378;2023-05-15T10:31:35;21.90;99.90
28177;DHT22;15461;41.652;9.378;2023-05-15T10:34:06;21.90;99.90
28177;DHT22;15461;41.652;9.378;2023-05-15T10:36:33;21.90;99.90
28177;DHT22;15461;41.652;9.378;2023-05-15T10:39:01;21.90;99.90
28177;DHT22;15461;41.652;9.378;2023-05-15T10:41:34;22.10;99.90
28177;DHT22;15461;41.652;9.378;2023-05-15T10:44:01;22.30;99.90
28177;DHT22;15461;41.652;9.378;2023-05-15T10:46:29;22.60;99.90
28177;DHT22;15461;41.652;9.378;2023-05-15T10:48:57;22.70;99.90
28177;DHT22;15461;41.652;9.378;2023-05-15T10:51:25;22.40;99.90
28177;DHT22;15461;41.652;9.378;2023-05-15T10:53:55;22.40;99.90
28177;DHT22;15461;41.652;9.378;2023-05-15T10:56:32;22.40;99.90
28177;DHT22;15461;41.652;9.378;2023-05-15T10:59:05;22.50;99.90
28177;DHT22;15461;41.652;9.378;2023-05-15T11:01:33;22.60;99.90
28177;DHT22;15461;41.652;9.378;2023-05-15T11:04:14;22.40;99.90
28177;DHT22;15461;41.652;9.378;2023-05-15T11:06:41;22.10;99.90
28177;DHT22;15461;41.652;9.378;2023-05-15T11:12:00;22.20;99.90
28177;DHT22;15461;41.652;9.378;2023-05-15T11:17:06;22.40;99.90
28177;DHT22;15461;41.652;9.378;2023-05-15T11:19:39;22.20;99.90
28177;DHT22;15461;41.652;9.378;2023-05-15T11:24:58;22.00;99.90
28177;DHT22;15461;41.652;9.378;2023-05-15T11:27:27;22.10;99.90
28177;DHT22;15461;41.652;9.378;2023-05-15T11:35:29;22.30;99.90
28177;DHT22;15461;41.652;9.378;2023-05-15T11:38:12;22.30;99.90
28177;DHT22;15461;41.652;9.378;2023-05-15T11:41:01;22.10;99.90
28177;DHT22;15461;41.652;9.378;2023-05-15T11:43:29;21.90;99.90
28177;DHT22;15461;41.652;9.378;2023-05-15T11:48:30;22.30;99.90
28177;DHT22;15461;41.652;9.378;2023-05-15T11:50:56;22.20;99.90
28177;DHT22;15461;41.652;9.378;2023-05-15T11:53:22;21.80;99.90
28177;DHT22;15461;41.652;9.378;2023-05-15T11:55:51;21.70;99.90
28177;DHT22;15461;41.652;9.378;2023-05-15T11:58:19;21.70;99.90
28177;DHT22;15461;41.652;9.378;2023-05-15T12:00:47;21.80;99.90
28177;DHT22;15461;41.652;9.378;2023-05-15T12:03:24;21.90;99.90
28177;DHT22;15461;41.652;9.378;2023-05-15T12:05:51;21.90;99.90
28177;DHT22;15461;41.652;9.378;2023-05-15T12:08:19;21.80;99.90
28177;DHT22;15461;41.652;9.378;2023-05-15T12:10:46;21.90;99.90
28177;DHT22;15461;41.652;9.378;2023-05-15T12:13:13;21.80;99.90
28177;DHT22;15461;41.652;9.378;2023-05-15T12:15:46;21.70;99.90
28177;DHT22;15461;41.652;9.378;2023-05-15T12:18:12;21.70;99.90
28177;DHT22;15461;41.652;9.378;2023-05-15T12:20:39;21.70;99.90
28177;DHT22;15461;41.652;9.378;2023-05-15T12:23:09;21.70;99.90
28177;DHT22;15461;41.652;9.378;2023-05-15T12:25:36;21.80;99.90
28177;DHT22;15461;41.652;9.378;2023-05-15T12:28:03;21.90;99.90
28177;DHT22;15461;41.652;9.378;2023-05-15T12:30:31;21.90;99.90
28177;DHT22;15461;41.652;9.378;2023-05-15T12:33:05;21.90;99.90
28177;DHT22;15461;41.652;9.378;2023-05-15T12:35:33;21.90;99.90
28177;DHT22;15461;41.652;9.378;2023-05-15T12:38:02;21.90;99.90
28177;DHT22;15461;41.652;9.378;2023-05-15T12:40:32;22.10;99.90
28177;DHT22;15461;41.652;9.378;2023-05-15T12:43:03;22.30;99.90
28177;DHT22;15461;41.652;9.378;2023-05-15T12:45:30;22.30;99.90
28177;DHT22;15461;41.652;9.378;2023-05-15T12:47:58;22.20;99.90
28177;DHT22;15461;41.652;9.378;2023-05-15T12:50:24;22.10;99.90
28177;DHT22;15461;41.652;9.378;2023-05-15T12:52:52;21.80;99.90
28177;DHT22;15461;41.652;9.378;2023-05-15T12:55:23;21.70;99.90
28177;DHT22;15461;41.652;9.378;2023-05-15T12:57:57;21.80;99.90
28177;DHT22;15461;41.652;9.378;2023-05-15T13:00:24;21.90;99.90
28177;DHT22;15461;41.652;9.378;2023-05-15T13:02:55;21.90;99.90
28177;DHT22;15461;41.652;9.378;2023-05-15T13:05:24;22.00;99.90
28177;DHT22;15461;41.652;9.378;2023-05-15T13:07:51;21.90;99.90
28177;DHT22;15461;41.652;9.378;2023-05-15T13:10:20;22.00;99.90
28177;DHT22;15461;41.652;9.378;2023-05-15T13:12:51;22.10;99.90
28177;DHT22;15461;41.652;9.378;2023-05-15T13:15:27;22.10;99.90
28177;DHT22;15461;41.652;9.378;2023-05-15T13:20:28;22.00;99.90
28177;DHT22;15461;41.652;9.378;2023-05-15T13:22:54;21.80;99.90
28177;DHT22;15461;41.652;9.378;2023-05-15T13:25:21;21.70;99.90
28177;DHT22;15461;41.652;9.378;2023-05-15T13:27:47;21.70;99.90
28177;DHT22;15461;41.652;9.378;2023-05-15T13:30:14;21.70;99.90
28177;DHT22;15461;41.652;9.378;2023-05-15T13:32:40;21.60;99.90
28177;DHT22;15461;41.652;9.378;2023-05-15T13:35:06;21.60;99.90
28177;DHT22;15461;41.652;9.378;2023-05-15T13:37:33;21.70;99.90
28177;DHT22;15461;41.652;9.378;2023-05-15T13:39:59;21.50;99.90
28177;DHT22;15461;41.652;9.378;2023-05-15T13:42:24;21.30;99.90
28177;DHT22;15461;41.652;9.378;2023-05-15T13:44:50;21.30;99.90
28177;DHT22;15461;41.652;9.378;2023-05-15T13:47:16;21.30;99.90
28177;DHT22;15461;41.652;9.378;2023-05-15T13:49:42;21.20;99.90
28177;DHT22;15461;41.652;9.378;2023-05-15T13:52:09;21.30;99.90
28177;DHT22;15461;41.652;9.378;2023-05-15T13:54:35;21.30;99.90
28177;DHT22;15461;41.652;9.378;2023-05-15T13:57:01;21.20;99.90
28177;DHT22;15461;41.652;9.378;2023-05-15T13:59:27;21.20;99.90
28177;DHT22;15461;41.652;9.378;2023-05-15T14:01:53;21.20;99.90
28177;DHT22;15461;41.652;9.378;2023-05-15T14:04:19;21.20;99.90
28177;DHT22;15461;41.652;9.378;2023-05-15T14:06:45;21.40;99.90
28177;DHT22;15461;41.652;9.378;2023-05-15T14:09:11;21.40;99.90
28177;DHT22;15461;41.652;9.378;2023-05-15T14:11:36;21.50;99.90
28177;DHT22;15461;41.652;9.378;2023-05-15T14:14:03;21.40;99.90
28177;DHT22;15461;41.652;9.378;2023-05-15T14:16:28;21.40;99.90
28177;DHT22;15461;41.652;9.378;2023-05-15T14:18:54;21.20;99.90
28177;DHT22;15461;41.652;9.378;2023-05-15T14:21:21;21.20;99.90
28177;DHT22;15461;41.652;9.378;2023-05-15T14:23:47;21.40;99.90
28177;DHT22;15461;41.652;9.378;2023-05-15T14:26:12;21.70;99.90
28177;DHT22;15461;41.652;9.378;2023-05-15T14:28:38;21.80;99.90
28177;DHT22;15461;41.652;9.378;2023-05-15T14:31:04;21.80;99.90
28177;DHT22;15461;41.652;9.378;2023-05-15T14:33:30;21.70;99.90
28177;DHT22;15461;41.652;9.378;2023-05-15T14:35:56;21.70;99.90
28177;DHT22;15461;41.652;9.378;2023-05-15T14:38:22;21.70;99.90
28177;DHT22;15461;41.652;9.378;2023-05-15T14:40:48;21.60;99.90
28177;DHT22;15461;41.652;9.378;2023-05-15T14:43:14;21.40;99.90
28177;DHT22;15461;41.652;9.378;2023-05-15T14:45:39;21.20;99.90
28177;DHT22;15461;41.652;9.378;2023-05-15T14:48:05;21.20;99.90
28177;DHT22;15461;41.652;9.378;2023-05-15T14:50:31;21.30;99.90
28177;DHT22;15461;41.652;9.378;2023-05-15T14:52:57;21.20;99.90
28177;DHT22;15461;41.652;9.378;2023-05-15T14:55:23;21.00;99.90
28177;DHT22;15461;41.652;9.378;2023-05-15T14:57:49;20.90;99.90
28177;DHT22;15461;41.652;9.378;2023-05-15T15:00:15;20.80;99.90
28177;DHT22;15461;41.652;9.378;2023-05-15T15:02:42;20.60;99.90
28177;DHT22;15461;41.652;9.378;2023-05-15T15:05:08;20.60;99.90
28177;DHT22;15461;41.652;9.378;2023-05-15T15:07:57;20.70;99.90
28177;DHT22;15461;41.652;9.378;2023-05-15T15:10:23;20.80;99.90
28177;DHT22;15461;41.652;9.378;2023-05-15T15:12:52;20.70;99.90
28177;DHT22;15461;41.652;9.378;2023-05-15T15:15:19;20.80;99.90
28177;DHT22;15461;41.652;9.378;2023-05-15T15:17:45;20.80;99.90
28177;DHT22;15461;41.652;9.378;2023-05-15T15:20:12;20.60;99.90
28177;DHT22;15461;41.652;9.378;2023-05-15T15:22:39;20.50;99.90
28177;DHT22;15461;41.652;9.378;2023-05-15T15:25:05;20.40;99.90
28177;DHT22;15461;41.652;9.378;2023-05-15T15:27:32;20.20;99.90
28177;DHT22;15461;41.652;9.378;2023-05-15T15:29:58;20.20;99.90
28177;DHT22;15461;41.652;9.378;2023-05-15T15:32:25;20.20;99.90
28177;DHT22;15461;41.652;9.378;2023-05-15T15:34:51;20.20;99.90
28177;DHT22;15461;41.652;9.378;2023-05-15T15:37:17;20.10;99.90
28177;DHT22;15461;41.652;9.378;2023-05-15T15:39:42;19.90;99.90
28177;DHT22;15461;41.652;9.378;2023-05-15T15:42:08;19.80;99.90
28177;DHT22;15461;41.652;9.378;2023-05-15T15:44:34;19.80;99.90
28177;DHT22;15461;41.652;9.378;2023-05-15T15:47:00;19.80;99.90
28177;DHT22;15461;41.652;9.378;2023-05-15T15:49:27;19.80;99.90
28177;DHT22;15461;41.652;9.378;2023-05-15T15:51:53;19.90;99.90
28177;DHT22;15461;41.652;9.378;2023-05-15T15:54:19;20.00;99.90
28177;DHT22;15461;41.652;9.378;2023-05-15T15:56:45;20.00;99.90
28177;DHT22;15461;41.652;9.378;2023-05-15T15:59:13;20.10;99.90
28177;DHT22;15461;41.652;9.378;2023-05-15T16:01:39;20.10;99.90
28177;DHT22;15461;41.652;9.378;2023-05-15T16:04:05;20.10;99.90
28177;DHT22;15461;41.652;9.378;2023-05-15T16:06:32;20.10;99.90
28177;DHT22;15461;41.652;9.378;2023-05-15T16:08:58;20.10;99.90
28177;DHT22;15461;41.652;9.378;2023-05-15T16:11:24;20.00;99.90
28177;DHT22;15461;41.652;9.378;2023-05-15T16:13:51;20.00;99.90